sensor_id;sensor_type;location;lat;lon;timestamp;P1;durP1;ratioP1;P2;durP2;ratioP2
15340;SDS011;7770;52.158;5.372;2022-07-06T00:00:03;4.10;;;3.07;;
15340;SDS011;7770;52.158;5.372;2022-07-06T00:02:50;3.10;;;2.70;;
15340;SDS011;7770;52.158;5.372;2022-07-06T00:05:36;3.23;;;2.60;;
15340;SDS011;7770;52.158;5.372;2022-07-06T00:08:22;4.87;;;2.90;;
15340;SDS011;7770;52.158;5.372;2022-07-06T00:11:09;4.43;;;2.83;;
15340;SDS011;7770;52.158;5.372;2022-07-06T00:13:55;3.47;;;2.80;;
15340;SDS011;7770;52.158;5.372;2022-07-06T00:16:42;5.03;;;3.00;;
15340;SDS011;7770;52.158;5.372;2022-07-06T00:19:28;3.80;;;2.83;;
15340;SDS011;7770;52.158;5.372;2022-07-06T00:22:14;5.13;;;2.83;;
15340;SDS011;7770;52.158;5.372;2022-07-06T00:25:00;3.67;;;2.80;;
15340;SDS011;7770;52.158;5.372;2022-07-06T00:27:46;6.07;;;2.63;;
15340;SDS011;7770;52.158;5.372;2022-07-06T00:30:32;4.33;;;2.70;;
15340;SDS011;7770;52.158;5.372;2022-07-06T00:33:18;4.53;;;3.03;;
15340;SDS011;7770;52.158;5.372;2022-07-06T00:36:04;3.80;;;2.97;;
15340;SDS011;7770;52.158;5.372;2022-07-06T00:38:50;4.03;;;2.77;;
15340;SDS011;7770;52.158;5.372;2022-07-06T00:41:36;5.93;;;2.83;;
15340;SDS011;7770;52.158;5.372;2022-07-06T00:44:22;5.03;;;2.73;;
15340;SDS011;7770;52.158;5.372;2022-07-06T00:47:09;3.00;;;2.60;;
15340;SDS011;7770;52.158;5.372;2022-07-06T00:49:55;5.80;;;3.00;;
15340;SDS011;7770;52.158;5.372;2022-07-06T00:53:00;7.07;;;3.10;;
15340;SDS011;7770;52.158;5.372;2022-07-06T00:55:48;8.90;;;3.30;;
15340;SDS011;7770;52.158;5.372;2022-07-06T00:58:34;3.83;;;2.57;;
15340;SDS011;7770;52.158;5.372;2022-07-06T01:01:21;4.60;;;2.80;;
15340;SDS011;7770;52.158;5.372;2022-07-06T01:04:07;5.50;;;3.00;;
15340;SDS011;7770;52.158;5.372;2022-07-06T01:06:53;5.10;;;2.70;;
15340;SDS011;7770;52.158;5.372;2022-07-06T01:09:40;6.70;;;2.80;;
15340;SDS011;7770;52.158;5.372;2022-07-06T01:12:26;4.03;;;2.47;;
15340;SDS011;7770;52.158;5.372;2022-07-06T01:15:14;3.23;;;2.93;;
15340;SDS011;7770;52.158;5.372;2022-07-06T01:18:06;4.63;;;2.93;;
15340;SDS011;7770;52.158;5.372;2022-07-06T01:21:06;5.03;;;3.20;;
15340;SDS011;7770;52.158;5.372;2022-07-06T01:23:54;3.73;;;2.90;;
15340;SDS011;7770;52.158;5.372;2022-07-06T01:26:40;4.20;;;3.00;;
15340;SDS011;7770;52.158;5.372;2022-07-06T01:29:26;4.33;;;2.90;;
15340;SDS011;7770;52.158;5.372;2022-07-06T01:32:12;3.50;;;2.73;;
15340;SDS011;7770;52.158;5.372;2022-07-06T01:34:59;3.87;;;2.90;;
15340;SDS011;7770;52.158;5.372;2022-07-06T01:37:45;3.70;;;3.10;;
15340;SDS011;7770;52.158;5.372;2022-07-06T01:40:31;4.77;;;3.07;;
15340;SDS011;7770;52.158;5.372;2022-07-06T01:43:17;3.50;;;2.60;;
15340;SDS011;7770;52.158;5.372;2022-07-06T01:46:03;4.93;;;3.17;;
15340;SDS011;7770;52.158;5.372;2022-07-06T01:48:49;4.10;;;3.00;;
15340;SDS011;7770;52.158;5.372;2022-07-06T01:51:35;5.50;;;3.10;;
15340;SDS011;7770;52.158;5.372;2022-07-06T01:54:21;4.00;;;2.83;;
15340;SDS011;7770;52.158;5.372;2022-07-06T01:57:07;7.70;;;3.30;;
15340;SDS011;7770;52.158;5.372;2022-07-06T01:59:53;3.70;;;2.93;;
15340;SDS011;7770;52.158;5.372;2022-07-06T02:02:39;3.20;;;2.90;;
15340;SDS011;7770;52.158;5.372;2022-07-06T02:05:25;3.57;;;2.80;;
15340;SDS011;7770;52.158;5.372;2022-07-06T02:08:11;4.73;;;2.70;;
15340;SDS011;7770;52.158;5.372;2022-07-06T02:10:57;3.23;;;2.70;;
15340;SDS011;7770;52.158;5.372;2022-07-06T02:13:43;4.67;;;2.97;;
15340;SDS011;7770;52.158;5.372;2022-07-06T02:16:29;3.90;;;2.50;;
15340;SDS011;7770;52.158;5.372;2022-07-06T02:19:16;3.53;;;2.60;;
15340;SDS011;7770;52.158;5.372;2022-07-06T02:22:03;3.37;;;2.53;;
15340;SDS011;7770;52.158;5.372;2022-07-06T02:24:49;3.87;;;2.67;;
15340;SDS011;7770;52.158;5.372;2022-07-06T02:27:35;5.80;;;2.80;;
15340;SDS011;7770;52.158;5.372;2022-07-06T02:30:21;6.20;;;2.70;;
15340;SDS011;7770;52.158;5.372;2022-07-06T02:33:07;5.37;;;2.90;;
15340;SDS011;7770;52.158;5.372;2022-07-06T02:35:52;3.50;;;2.40;;
15340;SDS011;7770;52.158;5.372;2022-07-06T02:38:38;3.70;;;2.70;;
15340;SDS011;7770;52.158;5.372;2022-07-06T02:41:24;5.40;;;2.70;;
15340;SDS011;7770;52.158;5.372;2022-07-06T02:44:11;4.47;;;2.80;;
15340;SDS011;7770;52.158;5.372;2022-07-06T02:46:57;4.10;;;2.33;;
15340;SDS011;7770;52.158;5.372;2022-07-06T02:49:43;4.77;;;2.60;;
15340;SDS011;7770;52.158;5.372;2022-07-06T02:52:28;3.77;;;2.60;;
15340;SDS011;7770;52.158;5.372;2022-07-06T02:55:15;4.03;;;2.60;;
15340;SDS011;7770;52.158;5.372;2022-07-06T02:58:01;6.40;;;2.80;;
15340;SDS011;7770;52.158;5.372;2022-07-06T03:00:47;6.23;;;2.40;;
15340;SDS011;7770;52.158;5.372;2022-07-06T03:03:33;3.80;;;2.33;;
15340;SDS011;7770;52.158;5.372;2022-07-06T03:06:19;3.17;;;2.40;;
15340;SDS011;7770;52.158;5.372;2022-07-06T03:09:05;4.43;;;2.00;;
15340;SDS011;7770;52.158;5.372;2022-07-06T03:11:51;5.10;;;2.43;;
15340;SDS011;7770;52.158;5.372;2022-07-06T03:14:37;5.27;;;2.20;;
15340;SDS011;7770;52.158;5.372;2022-07-06T03:17:23;5.80;;;2.53;;
15340;SDS011;7770;52.158;5.372;2022-07-06T03:20:10;6.40;;;2.37;;
15340;SDS011;7770;52.158;5.372;2022-07-06T03:22:56;2.77;;;2.30;;
15340;SDS011;7770;52.158;5.372;2022-07-06T03:25:42;3.97;;;2.10;;
15340;SDS011;7770;52.158;5.372;2022-07-06T03:28:28;4.23;;;2.37;;
15340;SDS011;7770;52.158;5.372;2022-07-06T03:31:14;3.20;;;2.50;;
15340;SDS011;7770;52.158;5.372;2022-07-06T03:34:00;3.27;;;2.23;;
15340;SDS011;7770;52.158;5.372;2022-07-06T03:36:46;3.40;;;2.20;;
15340;SDS011;7770;52.158;5.372;2022-07-06T03:39:32;4.07;;;2.13;;
15340;SDS011;7770;52.158;5.372;2022-07-06T03:42:18;3.70;;;2.20;;
15340;SDS011;7770;52.158;5.372;2022-07-06T03:45:05;3.07;;;2.07;;
15340;SDS011;7770;52.158;5.372;2022-07-06T03:47:51;3.37;;;2.03;;
15340;SDS011;7770;52.158;5.372;2022-07-06T03:50:37;2.53;;;2.10;;
15340;SDS011;7770;52.158;5.372;2022-07-06T03:53:23;4.83;;;2.40;;
15340;SDS011;7770;52.158;5.372;2022-07-06T03:56:09;3.20;;;2.03;;
15340;SDS011;7770;52.158;5.372;2022-07-06T03:59:13;3.50;;;2.33;;
15340;SDS011;7770;52.158;5.372;2022-07-06T04:01:59;3.93;;;2.10;;
15340;SDS011;7770;52.158;5.372;2022-07-06T04:04:46;9.30;;;2.50;;
15340;SDS011;7770;52.158;5.372;2022-07-06T04:07:32;2.60;;;2.10;;
15340;SDS011;7770;52.158;5.372;2022-07-06T04:10:18;2.37;;;1.93;;
15340;SDS011;7770;52.158;5.372;2022-07-06T04:13:04;3.80;;;2.30;;
15340;SDS011;7770;52.158;5.372;2022-07-06T04:15:50;3.83;;;2.10;;
15340;SDS011;7770;52.158;5.372;2022-07-06T04:18:37;1.90;;;1.70;;
15340;SDS011;7770;52.158;5.372;2022-07-06T04:21:23;4.73;;;2.30;;
15340;SDS011;7770;52.158;5.372;2022-07-06T04:24:09;4.37;;;1.90;;
15340;SDS011;7770;52.158;5.372;2022-07-06T04:26:55;3.97;;;2.13;;
15340;SDS011;7770;52.158;5.372;2022-07-06T04:29:41;2.97;;;1.90;;
15340;SDS011;7770;52.158;5.372;2022-07-06T04:32:27;2.90;;;1.83;;
15340;SDS011;7770;52.158;5.372;2022-07-06T04:35:13;3.87;;;2.10;;
15340;SDS011;7770;52.158;5.372;2022-07-06T04:37:59;3.53;;;2.13;;
15340;SDS011;7770;52.158;5.372;2022-07-06T04:40:45;4.83;;;2.00;;
15340;SDS011;7770;52.158;5.372;2022-07-06T04:43:34;2.97;;;1.60;;
15340;SDS011;7770;52.158;5.372;2022-07-06T04:46:20;3.27;;;1.90;;
15340;SDS011;7770;52.158;5.372;2022-07-06T04:49:06;3.27;;;1.73;;
15340;SDS011;7770;52.158;5.372;2022-07-06T04:51:52;2.40;;;1.70;;
15340;SDS011;7770;52.158;5.372;2022-07-06T04:54:38;3.10;;;1.80;;
15340;SDS011;7770;52.158;5.372;2022-07-06T04:57:24;2.60;;;1.90;;
15340;SDS011;7770;52.158;5.372;2022-07-06T05:00:14;3.87;;;1.67;;
15340;SDS011;7770;52.158;5.372;2022-07-06T05:03:01;3.57;;;2.03;;
15340;SDS011;7770;52.158;5.372;2022-07-06T05:05:47;4.27;;;1.80;;
15340;SDS011;7770;52.158;5.372;2022-07-06T05:08:33;7.30;;;6.03;;
15340;SDS011;7770;52.158;5.372;2022-07-06T05:11:19;7.93;;;5.30;;
15340;SDS011;7770;52.158;5.372;2022-07-06T05:14:05;3.70;;;2.40;;
15340;SDS011;7770;52.158;5.372;2022-07-06T05:16:51;2.70;;;1.70;;
15340;SDS011;7770;52.158;5.372;2022-07-06T05:19:37;3.00;;;1.93;;
15340;SDS011;7770;52.158;5.372;2022-07-06T05:22:23;5.27;;;2.40;;
15340;SDS011;7770;52.158;5.372;2022-07-06T05:25:09;2.47;;;1.93;;
15340;SDS011;7770;52.158;5.372;2022-07-06T05:27:55;3.67;;;1.70;;
15340;SDS011;7770;52.158;5.372;2022-07-06T05:30:41;2.53;;;1.60;;
15340;SDS011;7770;52.158;5.372;2022-07-06T05:33:28;2.30;;;1.73;;
15340;SDS011;7770;52.158;5.372;2022-07-06T05:36:14;2.37;;;1.60;;
15340;SDS011;7770;52.158;5.372;2022-07-06T05:39:00;2.23;;;1.63;;
15340;SDS011;7770;52.158;5.372;2022-07-06T05:41:46;2.50;;;1.30;;
15340;SDS011;7770;52.158;5.372;2022-07-06T05:44:32;2.53;;;1.30;;
15340;SDS011;7770;52.158;5.372;2022-07-06T05:47:18;2.78;;;1.30;;
15340;SDS011;7770;52.158;5.372;2022-07-06T05:50:22;2.65;;;1.45;;
15340;SDS011;7770;52.158;5.372;2022-07-06T05:53:08;3.00;;;1.50;;
15340;SDS011;7770;52.158;5.372;2022-07-06T05:55:54;2.05;;;1.45;;
15340;SDS011;7770;52.158;5.372;2022-07-06T05:58:40;3.47;;;1.60;;
15340;SDS011;7770;52.158;5.372;2022-07-06T06:01:26;4.07;;;1.60;;
15340;SDS011;7770;52.158;5.372;2022-07-06T06:04:12;2.03;;;1.58;;
15340;SDS011;7770;52.158;5.372;2022-07-06T06:06:58;2.15;;;1.27;;
15340;SDS011;7770;52.158;5.372;2022-07-06T06:09:44;2.95;;;1.40;;
15340;SDS011;7770;52.158;5.372;2022-07-06T06:12:30;3.80;;;1.60;;
15340;SDS011;7770;52.158;5.372;2022-07-06T06:15:16;2.38;;;1.50;;
15340;SDS011;7770;52.158;5.372;2022-07-06T06:18:03;3.35;;;1.70;;
15340;SDS011;7770;52.158;5.372;2022-07-06T06:20:49;3.75;;;1.48;;
15340;SDS011;7770;52.158;5.372;2022-07-06T06:23:35;2.53;;;1.30;;
15340;SDS011;7770;52.158;5.372;2022-07-06T06:26:21;3.22;;;1.75;;
15340;SDS011;7770;52.158;5.372;2022-07-06T06:29:07;2.75;;;1.27;;
15340;SDS011;7770;52.158;5.372;2022-07-06T06:31:53;5.43;;;1.30;;
15340;SDS011;7770;52.158;5.372;2022-07-06T06:34:39;9.02;;;2.05;;
15340;SDS011;7770;52.158;5.372;2022-07-06T06:37:25;12.48;;;4.07;;
15340;SDS011;7770;52.158;5.372;2022-07-06T06:40:11;2.42;;;1.60;;
15340;SDS011;7770;52.158;5.372;2022-07-06T06:42:58;3.20;;;1.60;;
15340;SDS011;7770;52.158;5.372;2022-07-06T06:45:43;2.00;;;1.40;;
15340;SDS011;7770;52.158;5.372;2022-07-06T06:48:30;2.77;;;1.50;;
15340;SDS011;7770;52.158;5.372;2022-07-06T06:51:16;3.63;;;1.73;;
15340;SDS011;7770;52.158;5.372;2022-07-06T06:54:03;3.33;;;1.33;;
15340;SDS011;7770;52.158;5.372;2022-07-06T06:56:49;2.57;;;1.40;;
15340;SDS011;7770;52.158;5.372;2022-07-06T06:59:35;3.27;;;1.50;;
15340;SDS011;7770;52.158;5.372;2022-07-06T07:02:20;3.00;;;1.33;;
15340;SDS011;7770;52.158;5.372;2022-07-06T07:05:07;2.60;;;1.20;;
15340;SDS011;7770;52.158;5.372;2022-07-06T07:07:53;3.23;;;1.27;;
15340;SDS011;7770;52.158;5.372;2022-07-06T07:10:41;3.97;;;1.57;;
15340;SDS011;7770;52.158;5.372;2022-07-06T07:13:27;5.13;;;1.70;;
15340;SDS011;7770;52.158;5.372;2022-07-06T07:16:13;3.63;;;1.40;;
15340;SDS011;7770;52.158;5.372;2022-07-06T07:18:59;4.80;;;1.30;;
15340;SDS011;7770;52.158;5.372;2022-07-06T07:21:45;2.17;;;1.47;;
15340;SDS011;7770;52.158;5.372;2022-07-06T07:24:31;1.57;;;1.20;;
15340;SDS011;7770;52.158;5.372;2022-07-06T07:27:17;2.17;;;1.20;;
15340;SDS011;7770;52.158;5.372;2022-07-06T07:30:04;6.23;;;1.20;;
15340;SDS011;7770;52.158;5.372;2022-07-06T07:32:50;2.90;;;1.33;;
15340;SDS011;7770;52.158;5.372;2022-07-06T07:35:37;1.90;;;1.15;;
15340;SDS011;7770;52.158;5.372;2022-07-06T07:38:23;1.33;;;1.13;;
15340;SDS011;7770;52.158;5.372;2022-07-06T07:41:09;3.75;;;1.10;;
15340;SDS011;7770;52.158;5.372;2022-07-06T07:43:59;1.63;;;1.10;;
15340;SDS011;7770;52.158;5.372;2022-07-06T07:46:45;2.67;;;1.00;;
15340;SDS011;7770;52.158;5.372;2022-07-06T07:49:31;2.28;;;1.30;;
15340;SDS011;7770;52.158;5.372;2022-07-06T07:52:17;4.40;;;1.40;;
15340;SDS011;7770;52.158;5.372;2022-07-06T07:55:03;3.58;;;1.48;;
15340;SDS011;7770;52.158;5.372;2022-07-06T07:57:50;3.85;;;1.50;;
15340;SDS011;7770;52.158;5.372;2022-07-06T08:00:36;3.00;;;1.27;;
15340;SDS011;7770;52.158;5.372;2022-07-06T08:03:23;3.47;;;1.17;;
15340;SDS011;7770;52.158;5.372;2022-07-06T08:06:09;2.17;;;1.23;;
15340;SDS011;7770;52.158;5.372;2022-07-06T08:08:55;3.45;;;1.30;;
15340;SDS011;7770;52.158;5.372;2022-07-06T08:11:41;2.80;;;1.50;;
15340;SDS011;7770;52.158;5.372;2022-07-06T08:14:27;1.50;;;1.20;;
15340;SDS011;7770;52.158;5.372;2022-07-06T08:17:13;3.47;;;1.50;;
15340;SDS011;7770;52.158;5.372;2022-07-06T08:19:59;2.20;;;1.20;;
15340;SDS011;7770;52.158;5.372;2022-07-06T08:22:46;2.13;;;1.50;;
15340;SDS011;7770;52.158;5.372;2022-07-06T08:25:32;3.33;;;1.50;;
15340;SDS011;7770;52.158;5.372;2022-07-06T08:28:18;2.72;;;1.40;;
15340;SDS011;7770;52.158;5.372;2022-07-06T08:31:04;2.05;;;1.23;;
15340;SDS011;7770;52.158;5.372;2022-07-06T08:33:51;2.03;;;1.17;;
15340;SDS011;7770;52.158;5.372;2022-07-06T08:36:38;1.92;;;1.40;;
15340;SDS011;7770;52.158;5.372;2022-07-06T08:39:24;2.22;;;1.50;;
15340;SDS011;7770;52.158;5.372;2022-07-06T08:42:10;2.25;;;1.30;;
15340;SDS011;7770;52.158;5.372;2022-07-06T08:45:02;4.35;;;1.55;;
15340;SDS011;7770;52.158;5.372;2022-07-06T08:47:51;2.85;;;1.33;;
15340;SDS011;7770;52.158;5.372;2022-07-06T08:50:40;2.38;;;1.50;;
15340;SDS011;7770;52.158;5.372;2022-07-06T08:53:26;4.97;;;1.48;;
15340;SDS011;7770;52.158;5.372;2022-07-06T08:56:13;4.05;;;1.27;;
15340;SDS011;7770;52.158;5.372;2022-07-06T08:58:59;3.70;;;1.30;;
15340;SDS011;7770;52.158;5.372;2022-07-06T09:01:46;2.40;;;1.40;;
15340;SDS011;7770;52.158;5.372;2022-07-06T09:04:32;2.83;;;1.30;;
15340;SDS011;7770;52.158;5.372;2022-07-06T09:07:20;2.55;;;1.30;;
15340;SDS011;7770;52.158;5.372;2022-07-06T09:10:07;2.50;;;1.50;;
15340;SDS011;7770;52.158;5.372;2022-07-06T09:13:01;2.47;;;1.30;;
15340;SDS011;7770;52.158;5.372;2022-07-06T09:15:52;3.10;;;1.20;;
15340;SDS011;7770;52.158;5.372;2022-07-06T09:18:39;1.73;;;1.30;;
15340;SDS011;7770;52.158;5.372;2022-07-06T09:21:31;2.15;;;1.20;;
15340;SDS011;7770;52.158;5.372;2022-07-06T09:24:19;2.33;;;1.40;;
15340;SDS011;7770;52.158;5.372;2022-07-06T09:27:05;3.70;;;1.40;;
15340;SDS011;7770;52.158;5.372;2022-07-06T09:29:51;2.55;;;1.40;;
15340;SDS011;7770;52.158;5.372;2022-07-06T09:32:38;3.28;;;1.60;;
15340;SDS011;7770;52.158;5.372;2022-07-06T09:35:38;3.28;;;1.30;;
15340;SDS011;7770;52.158;5.372;2022-07-06T09:38:24;2.92;;;1.40;;
15340;SDS011;7770;52.158;5.372;2022-07-06T09:41:11;2.67;;;1.17;;
15340;SDS011;7770;52.158;5.372;2022-07-06T09:43:57;3.90;;;1.40;;
15340;SDS011;7770;52.158;5.372;2022-07-06T09:46:45;1.40;;;1.20;;
15340;SDS011;7770;52.158;5.372;2022-07-06T09:49:32;2.50;;;1.10;;
15340;SDS011;7770;52.158;5.372;2022-07-06T09:52:19;1.92;;;1.20;;
15340;SDS011;7770;52.158;5.372;2022-07-06T09:55:06;3.55;;;1.42;;
15340;SDS011;7770;52.158;5.372;2022-07-06T09:58:00;1.48;;;1.23;;
15340;SDS011;7770;52.158;5.372;2022-07-06T10:00:48;4.00;;;1.35;;
15340;SDS011;7770;52.158;5.372;2022-07-06T10:03:36;4.03;;;1.15;;
15340;SDS011;7770;52.158;5.372;2022-07-06T10:06:24;2.03;;;1.17;;
15340;SDS011;7770;52.158;5.372;2022-07-06T10:09:11;1.85;;;1.27;;
15340;SDS011;7770;52.158;5.372;2022-07-06T10:11:59;1.20;;;1.00;;
15340;SDS011;7770;52.158;5.372;2022-07-06T10:14:47;2.15;;;1.25;;
15340;SDS011;7770;52.158;5.372;2022-07-06T10:17:33;1.80;;;1.20;;
15340;SDS011;7770;52.158;5.372;2022-07-06T10:20:20;2.28;;;1.20;;
15340;SDS011;7770;52.158;5.372;2022-07-06T10:23:07;1.20;;;1.10;;
15340;SDS011;7770;52.158;5.372;2022-07-06T10:25:55;1.25;;;1.05;;
15340;SDS011;7770;52.158;5.372;2022-07-06T10:28:42;2.28;;;1.10;;
15340;SDS011;7770;52.158;5.372;2022-07-06T10:31:29;1.67;;;1.10;;
15340;SDS011;7770;52.158;5.372;2022-07-06T10:34:17;2.58;;;1.00;;
15340;SDS011;7770;52.158;5.372;2022-07-06T10:37:04;1.38;;;1.00;;
15340;SDS011;7770;52.158;5.372;2022-07-06T10:39:51;2.95;;;1.25;;
15340;SDS011;7770;52.158;5.372;2022-07-06T10:42:57;1.85;;;1.20;;
15340;SDS011;7770;52.158;5.372;2022-07-06T10:48:34;2.95;;;1.20;;
15340;SDS011;7770;52.158;5.372;2022-07-06T10:51:24;2.70;;;1.20;;
15340;SDS011;7770;52.158;5.372;2022-07-06T10:54:13;1.63;;;1.10;;
15340;SDS011;7770;52.158;5.372;2022-07-06T10:57:01;3.97;;;1.20;;
15340;SDS011;7770;52.158;5.372;2022-07-06T11:00:04;2.53;;;1.38;;
15340;SDS011;7770;52.158;5.372;2022-07-06T11:02:51;1.95;;;1.10;;
15340;SDS011;7770;52.158;5.372;2022-07-06T11:05:41;2.80;;;1.30;;
15340;SDS011;7770;52.158;5.372;2022-07-06T11:11:40;1.00;;;0.93;;
15340;SDS011;7770;52.158;5.372;2022-07-06T11:14:28;1.17;;;1.08;;
15340;SDS011;7770;52.158;5.372;2022-07-06T11:17:20;2.30;;;1.30;;
15340;SDS011;7770;52.158;5.372;2022-07-06T11:20:11;1.58;;;1.10;;
15340;SDS011;7770;52.158;5.372;2022-07-06T11:22:57;1.33;;;1.20;;
15340;SDS011;7770;52.158;5.372;2022-07-06T11:25:44;3.20;;;1.13;;
15340;SDS011;7770;52.158;5.372;2022-07-06T11:28:30;3.50;;;1.58;;
15340;SDS011;7770;52.158;5.372;2022-07-06T11:31:17;2.00;;;1.15;;
15340;SDS011;7770;52.158;5.372;2022-07-06T11:34:04;2.85;;;1.08;;
15340;SDS011;7770;52.158;5.372;2022-07-06T11:36:58;1.23;;;1.13;;
15340;SDS011;7770;52.158;5.372;2022-07-06T11:39:49;1.67;;;1.20;;
15340;SDS011;7770;52.158;5.372;2022-07-06T11:42:35;1.60;;;1.20;;
15340;SDS011;7770;52.158;5.372;2022-07-06T11:45:27;1.17;;;1.08;;
15340;SDS011;7770;52.158;5.372;2022-07-06T11:48:13;1.35;;;1.13;;
15340;SDS011;7770;52.158;5.372;2022-07-06T11:51:01;1.85;;;1.23;;
15340;SDS011;7770;52.158;5.372;2022-07-06T11:53:50;2.20;;;1.35;;
15340;SDS011;7770;52.158;5.372;2022-07-06T11:56:57;2.00;;;1.30;;
15340;SDS011;7770;52.158;5.372;2022-07-06T11:59:44;1.30;;;1.20;;
15340;SDS011;7770;52.158;5.372;2022-07-06T12:02:32;2.10;;;1.00;;
15340;SDS011;7770;52.158;5.372;2022-07-06T12:05:28;1.38;;;1.10;;
15340;SDS011;7770;52.158;5.372;2022-07-06T12:08:15;2.17;;;1.23;;
15340;SDS011;7770;52.158;5.372;2022-07-06T12:11:01;1.58;;;1.20;;
15340;SDS011;7770;52.158;5.372;2022-07-06T12:13:48;1.85;;;1.10;;
15340;SDS011;7770;52.158;5.372;2022-07-06T12:16:36;2.33;;;1.20;;
15340;SDS011;7770;52.158;5.372;2022-07-06T12:19:22;2.45;;;1.50;;
15340;SDS011;7770;52.158;5.372;2022-07-06T12:22:08;1.52;;;1.02;;
15340;SDS011;7770;52.158;5.372;2022-07-06T12:24:55;3.67;;;1.30;;
15340;SDS011;7770;52.158;5.372;2022-07-06T12:27:41;2.15;;;1.20;;
15340;SDS011;7770;52.158;5.372;2022-07-06T12:30:27;10.43;;;1.40;;
15340;SDS011;7770;52.158;5.372;2022-07-06T12:33:14;3.40;;;1.50;;
15340;SDS011;7770;52.158;5.372;2022-07-06T12:36:10;1.90;;;1.30;;
15340;SDS011;7770;52.158;5.372;2022-07-06T12:38:58;5.38;;;1.70;;
15340;SDS011;7770;52.158;5.372;2022-07-06T12:41:49;1.45;;;1.25;;
15340;SDS011;7770;52.158;5.372;2022-07-06T12:44:44;1.80;;;1.23;;
15340;SDS011;7770;52.158;5.372;2022-07-06T12:47:33;2.90;;;1.23;;
15340;SDS011;7770;52.158;5.372;2022-07-06T12:50:19;1.88;;;1.30;;
15340;SDS011;7770;52.158;5.372;2022-07-06T12:53:05;3.40;;;1.38;;
15340;SDS011;7770;52.158;5.372;2022-07-06T12:56:12;2.60;;;1.45;;
15340;SDS011;7770;52.158;5.372;2022-07-06T12:58:59;3.05;;;1.48;;
15340;SDS011;7770;52.158;5.372;2022-07-06T13:01:46;2.70;;;1.35;;
15340;SDS011;7770;52.158;5.372;2022-07-06T13:04:33;3.03;;;1.58;;
15340;SDS011;7770;52.158;5.372;2022-07-06T13:07:19;2.70;;;1.58;;
15340;SDS011;7770;52.158;5.372;2022-07-06T13:10:06;4.50;;;1.70;;
15340;SDS011;7770;52.158;5.372;2022-07-06T13:12:54;2.25;;;1.50;;
15340;SDS011;7770;52.158;5.372;2022-07-06T13:15:41;3.63;;;1.38;;
15340;SDS011;7770;52.158;5.372;2022-07-06T13:18:28;2.25;;;1.30;;
15340;SDS011;7770;52.158;5.372;2022-07-06T13:21:14;1.95;;;1.40;;
15340;SDS011;7770;52.158;5.372;2022-07-06T13:24:00;4.15;;;1.40;;
15340;SDS011;7770;52.158;5.372;2022-07-06T13:26:47;1.88;;;1.50;;
15340;SDS011;7770;52.158;5.372;2022-07-06T13:29:33;1.60;;;1.30;;
15340;SDS011;7770;52.158;5.372;2022-07-06T13:32:19;2.67;;;1.30;;
15340;SDS011;7770;52.158;5.372;2022-07-06T13:35:05;1.58;;;1.27;;
15340;SDS011;7770;52.158;5.372;2022-07-06T13:37:51;2.83;;;1.40;;
15340;SDS011;7770;52.158;5.372;2022-07-06T13:40:37;2.83;;;1.35;;
15340;SDS011;7770;52.158;5.372;2022-07-06T13:43:23;3.25;;;1.60;;
15340;SDS011;7770;52.158;5.372;2022-07-06T13:46:09;2.55;;;1.67;;
15340;SDS011;7770;52.158;5.372;2022-07-06T13:48:58;2.17;;;1.30;;
15340;SDS011;7770;52.158;5.372;2022-07-06T13:51:44;3.30;;;1.55;;
15340;SDS011;7770;52.158;5.372;2022-07-06T13:54:31;2.15;;;1.65;;
15340;SDS011;7770;52.158;5.372;2022-07-06T13:57:17;1.80;;;1.50;;
15340;SDS011;7770;52.158;5.372;2022-07-06T14:00:03;4.50;;;1.70;;
15340;SDS011;7770;52.158;5.372;2022-07-06T14:02:50;2.17;;;1.30;;
15340;SDS011;7770;52.158;5.372;2022-07-06T14:05:36;2.03;;;1.50;;
15340;SDS011;7770;52.158;5.372;2022-07-06T14:08:22;2.88;;;1.40;;
15340;SDS011;7770;52.158;5.372;2022-07-06T14:11:09;3.20;;;1.63;;
15340;SDS011;7770;52.158;5.372;2022-07-06T14:13:56;3.25;;;1.50;;
15340;SDS011;7770;52.158;5.372;2022-07-06T14:16:42;2.47;;;1.80;;
15340;SDS011;7770;52.158;5.372;2022-07-06T14:19:28;4.93;;;1.80;;
15340;SDS011;7770;52.158;5.372;2022-07-06T14:22:14;3.83;;;1.80;;
15340;SDS011;7770;52.158;5.372;2022-07-06T14:25:00;5.35;;;1.98;;
15340;SDS011;7770;52.158;5.372;2022-07-06T14:27:46;2.30;;;1.60;;
15340;SDS011;7770;52.158;5.372;2022-07-06T14:30:36;2.65;;;1.77;;
15340;SDS011;7770;52.158;5.372;2022-07-06T14:33:22;3.75;;;1.85;;
15340;SDS011;7770;52.158;5.372;2022-07-06T14:36:08;2.53;;;1.90;;
15340;SDS011;7770;52.158;5.372;2022-07-06T14:38:54;3.47;;;1.80;;
15340;SDS011;7770;52.158;5.372;2022-07-06T14:41:40;2.90;;;1.95;;
15340;SDS011;7770;52.158;5.372;2022-07-06T14:44:26;3.35;;;2.00;;
15340;SDS011;7770;52.158;5.372;2022-07-06T14:47:12;2.15;;;1.80;;
15340;SDS011;7770;52.158;5.372;2022-07-06T14:49:58;2.47;;;1.83;;
15340;SDS011;7770;52.158;5.372;2022-07-06T14:52:44;3.23;;;2.10;;
15340;SDS011;7770;52.158;5.372;2022-07-06T14:55:31;2.27;;;2.00;;
15340;SDS011;7770;52.158;5.372;2022-07-06T14:58:17;3.80;;;2.20;;
15340;SDS011;7770;52.158;5.372;2022-07-06T15:01:03;3.63;;;1.93;;
15340;SDS011;7770;52.158;5.372;2022-07-06T15:03:49;3.77;;;2.13;;
15340;SDS011;7770;52.158;5.372;2022-07-06T15:06:35;4.73;;;2.30;;
15340;SDS011;7770;52.158;5.372;2022-07-06T15:09:22;5.00;;;2.77;;
15340;SDS011;7770;52.158;5.372;2022-07-06T15:12:08;5.97;;;3.07;;
15340;SDS011;7770;52.158;5.372;2022-07-06T15:14:55;5.38;;;2.53;;
15340;SDS011;7770;52.158;5.372;2022-07-06T15:17:41;2.80;;;2.50;;
15340;SDS011;7770;52.158;5.372;2022-07-06T15:20:27;4.00;;;2.97;;
15340;SDS011;7770;52.158;5.372;2022-07-06T15:23:13;3.10;;;2.40;;
15340;SDS011;7770;52.158;5.372;2022-07-06T15:25:59;3.70;;;2.37;;
15340;SDS011;7770;52.158;5.372;2022-07-06T15:28:48;3.83;;;2.63;;
15340;SDS011;7770;52.158;5.372;2022-07-06T15:31:34;6.13;;;2.73;;
15340;SDS011;7770;52.158;5.372;2022-07-06T15:34:20;4.60;;;3.00;;
15340;SDS011;7770;52.158;5.372;2022-07-06T15:37:06;3.90;;;3.20;;
15340;SDS011;7770;52.158;5.372;2022-07-06T15:39:52;4.03;;;3.57;;
15340;SDS011;7770;52.158;5.372;2022-07-06T15:42:38;6.00;;;3.77;;
15340;SDS011;7770;52.158;5.372;2022-07-06T15:45:25;4.27;;;3.40;;
15340;SDS011;7770;52.158;5.372;2022-07-06T15:48:13;6.33;;;4.00;;
15340;SDS011;7770;52.158;5.372;2022-07-06T15:50:59;5.80;;;3.73;;
15340;SDS011;7770;52.158;5.372;2022-07-06T15:53:45;4.27;;;3.87;;
15340;SDS011;7770;52.158;5.372;2022-07-06T15:56:32;8.23;;;4.50;;
15340;SDS011;7770;52.158;5.372;2022-07-06T15:59:18;7.57;;;4.50;;
15340;SDS011;7770;52.158;5.372;2022-07-06T16:02:04;5.47;;;4.20;;
15340;SDS011;7770;52.158;5.372;2022-07-06T16:04:50;8.83;;;4.80;;
15340;SDS011;7770;52.158;5.372;2022-07-06T16:07:36;7.30;;;4.93;;
15340;SDS011;7770;52.158;5.372;2022-07-06T16:10:22;5.70;;;4.20;;
15340;SDS011;7770;52.158;5.372;2022-07-06T16:13:09;5.03;;;4.00;;
15340;SDS011;7770;52.158;5.372;2022-07-06T16:15:55;5.27;;;3.60;;
15340;SDS011;7770;52.158;5.372;2022-07-06T16:18:41;10.27;;;4.10;;
15340;SDS011;7770;52.158;5.372;2022-07-06T16:21:27;4.70;;;3.70;;
15340;SDS011;7770;52.158;5.372;2022-07-06T16:24:13;4.77;;;3.93;;
15340;SDS011;7770;52.158;5.372;2022-07-06T16:26:59;4.03;;;3.63;;
15340;SDS011;7770;52.158;5.372;2022-07-06T16:29:46;5.93;;;3.50;;
15340;SDS011;7770;52.158;5.372;2022-07-06T16:32:32;6.83;;;4.07;;
15340;SDS011;7770;52.158;5.372;2022-07-06T16:35:18;5.27;;;3.73;;
15340;SDS011;7770;52.158;5.372;2022-07-06T16:38:05;7.17;;;3.80;;
15340;SDS011;7770;52.158;5.372;2022-07-06T16:40:51;5.83;;;3.20;;
15340;SDS011;7770;52.158;5.372;2022-07-06T16:43:37;5.30;;;4.30;;
15340;SDS011;7770;52.158;5.372;2022-07-06T16:46:23;7.50;;;4.87;;
15340;SDS011;7770;52.158;5.372;2022-07-06T16:49:09;7.50;;;5.20;;
15340;SDS011;7770;52.158;5.372;2022-07-06T16:51:55;6.23;;;4.50;;
15340;SDS011;7770;52.158;5.372;2022-07-06T16:54:41;6.80;;;4.40;;
15340;SDS011;7770;52.158;5.372;2022-07-06T16:57:27;4.70;;;4.00;;
15340;SDS011;7770;52.158;5.372;2022-07-06T17:00:13;7.57;;;4.23;;
15340;SDS011;7770;52.158;5.372;2022-07-06T17:03:00;5.83;;;4.30;;
15340;SDS011;7770;52.158;5.372;2022-07-06T17:05:46;7.27;;;4.50;;